Time;durP1;ratioP1;P1;durP2;ratioP2;P2;SDS_P1;SDS_P2;PMS_P1;PMS_P2;Temp;Humidity;BMP_temperature;BMP_pressure;BME280_temperature;BME280_humidity;BME280_pressure;Samples;Min_cycle;Max_cycle;Signal;HPM_P1;HPM_P2
2022/04/02 00:01:08;;;;;;;2.90;1.20;;;;;;;0.49;100.00;101594.31;10431733;28;20076;-70
2022/04/02 00:06:08;;;;;;;2.80;1.27;;;;;;;0.53;100.00;101587.53;10429933;28;20049;-69
2022/04/02 00:11:09;;;;;;;2.90;0.98;;;;;;;0.60;100.00;101604.81;10413459;28;20457;-70
2022/04/02 00:16:09;;;;;;;3.22;1.20;;;;;;;0.48;100.00;101586.38;10429262;28;20049;-70
2022/04/02 00:21:10;;;;;;;10.05;2.58;;;;;;;0.49;100.00;101583.47;10409465;28;20054;-70
2022/04/02 00:26:13;;;;;;;3.20;1.20;;;;;;;0.52;100.00;101596.69;10387015;28;20046;-69
2022/04/02 00:31:13;;;;;;;2.67;1.20;;;;;;;0.55;100.00;101609.88;10412492;28;20029;-69
2022/04/02 00:36:15;;;;;;;3.72;1.33;;;;;;;0.44;100.00;101593.13;10429072;28;20373;-69
2022/04/02 00:41:16;;;;;;;3.83;1.40;;;;;;;0.42;100.00;101614.97;10404477;28;20060;-70
2022/04/02 00:46:17;;;;;;;4.35;1.55;;;;;;;0.28;100.00;101611.06;10395148;28;20480;-70
2022/04/02 00:51:18;;;;;;;3.42;1.90;;;;;;;0.25;100.00;101608.72;10411467;28;20041;-71
2022/04/02 00:56:19;;;;;;;4.05;1.58;;;;;;;0.16;100.00;101599.72;10427224;28;20432;-70
2022/04/02 01:01:19;;;;;;;2.83;1.67;;;;;;;0.07;100.00;101606.16;10412214;28;20029;-70
2022/04/02 01:06:20;;;;;;;3.28;1.70;;;;;;;0.08;100.00;101607.81;10412217;28;20033;-69
2022/04/02 01:11:20;;;;;;;4.20;1.98;;;;;;;-0.05;100.00;101604.78;10393490;28;20497;-70
2022/04/02 01:16:21;;;;;;;3.30;1.73;;;;;;;0.05;100.00;101623.59;10425768;28;20048;-69
2022/04/02 01:21:22;;;;;;;4.68;1.70;;;;;;;0.01;100.00;101623.06;10426406;28;20033;-70
2022/04/02 01:26:22;;;;;;;3.28;1.83;;;;;;;-0.02;100.00;101626.13;10410678;28;20025;-70
2022/04/02 01:31:23;;;;;;;5.43;2.10;;;;;;;-0.02;100.00;101628.81;10410944;28;20029;-69
2022/04/02 01:36:23;;;;;;;4.18;2.35;;;;;;;-0.12;100.00;101630.81;10372700;28;20038;-69
2022/04/02 01:41:24;;;;;;;4.30;1.35;;;;;;;-0.15;100.00;101628.44;10385537;28;20018;-70
2022/04/02 01:46:25;;;;;;;2.90;1.42;;;;;;;-0.16;100.00;101626.75;10385142;28;20026;-69
2022/04/02 01:51:25;;;;;;;4.03;1.65;;;;;;;-0.22;100.00;101634.50;10385265;28;20041;-70
2022/04/02 01:56:26;;;;;;;3.17;1.92;;;;;;;-0.16;100.00;101640.28;10383064;28;20030;-70
2022/04/02 02:01:27;;;;;;;3.10;1.83;;;;;;;-0.17;100.00;101633.16;10385808;28;20034;-70
2022/04/02 02:06:27;;;;;;;5.88;1.85;;;;;;;-0.43;100.00;101617.88;10387983;28;20398;-70
2022/04/02 02:11:28;;;;;;;6.00;2.30;;;;;;;-0.74;100.00;101595.94;10409321;28;20048;-71
2022/04/02 02:16:28;;;;;;;9.02;3.40;;;;;;;-0.55;100.00;101646.22;10394709;28;20045;-70
2022/04/02 02:21:29;;;;;;;3.03;1.83;;;;;;;-0.62;100.00;101654.13;10396619;28;20104;-69
2022/04/02 02:26:29;;;;;;;5.63;1.90;;;;;;;-0.64;100.00;101645.31;10414338;28;20061;-70
2022/04/02 02:31:30;;;;;;;4.40;1.80;;;;;;;-1.02;100.00;101578.06;10376736;28;20436;-69
2022/04/02 02:36:30;;;;;;;7.35;2.70;;;;;;;-0.62;100.00;101648.72;10392702;28;20115;-70
2022/04/02 02:41:31;;;;;;;6.40;2.30;;;;;;;-0.65;100.00;101644.47;10392453;28;20034;-70
2022/04/02 02:46:32;;;;;;;4.65;2.25;;;;;;;-0.61;100.00;101651.25;10392426;28;20040;-70
2022/04/02 02:51:32;;;;;;;8.43;2.42;;;;;;;-0.62;100.00;101651.41;10391964;28;20065;-70
2022/04/02 02:56:33;;;;;;;5.45;2.00;;;;;;;-0.61;100.00;101656.66;10392117;28;20030;-69
2022/04/02 03:01:33;;;;;;;5.60;2.75;;;;;;;-0.75;100.00;101627.53;10432720;28;20060;-69
2022/04/02 03:06:33;;;;;;;3.67;1.83;;;;;;;-0.74;100.00;101642.75;10433349;28;20022;-70
2022/04/02 03:11:34;;;;;;;3.60;2.10;;;;;;;-0.66;100.00;101659.03;10397337;28;20120;-69
2022/04/02 03:16:34;;;;;;;8.73;2.10;;;;;;;-0.71;100.00;101672.16;10410942;28;20034;-70
2022/04/02 03:21:35;;;;;;;4.70;2.27;;;;;;;-0.80;100.00;101670.44;10387503;28;20058;-69
2022/04/02 03:26:35;;;;;;;6.70;2.83;;;;;;;-0.91;100.00;101671.56;10370753;28;20518;-70
2022/04/02 03:31:36;;;;;;;8.55;2.08;;;;;;;-0.86;100.00;101676.47;10371573;28;20042;-70
2022/04/02 03:36:37;;;;;;;5.25;2.05;;;;;;;-0.90;100.00;101677.81;10386876;28;20034;-70
2022/04/02 03:41:38;;;;;;;6.72;3.15;;;;;;;-0.92;100.00;101682.53;10394932;28;20128;-69
2022/04/02 03:51:57;;;;;;;4.07;2.03;;;;;;;-1.13;100.00;101672.09;10428625;28;20048;-70
2022/04/02 03:56:58;;;;;;;8.90;3.00;;;;;;;-1.12;100.00;101674.59;10429065;28;20025;-69
2022/04/02 04:01:59;;;;;;;5.78;2.20;;;;;;;-1.16;100.00;101681.34;10411528;28;20029;-70
2022/04/02 04:06:59;;;;;;;10.02;3.63;;;;;;;-1.12;100.00;101707.03;10426595;28;20119;-70
2022/04/02 04:12:00;;;;;;;5.35;1.88;;;;;;;-1.26;100.00;101683.28;10411233;28;20048;-70
2022/04/02 04:17:01;;;;;;;7.93;2.40;;;;;;;-1.22;100.00;101696.34;10371261;28;1150856;-69
2022/04/02 04:22:03;;;;;;;8.25;2.75;;;;;;;-1.18;100.00;101707.66;10412912;28;20111;-69
2022/04/02 04:27:03;;;;;;;5.38;2.85;;;;;;;-1.22;100.00;101698.16;10428096;28;20048;-72
2022/04/02 04:32:04;;;;;;;7.27;2.77;;;;;;;-1.02;100.00;101717.75;10410854;28;20045;-71
2022/04/02 04:37:05;;;;;;;13.13;3.88;;;;;;;-0.95;100.00;101724.25;10427328;28;20029;-72
2022/04/02 04:42:05;;;;;;;4.40;2.20;;;;;;;-0.98;100.00;101729.94;10412094;28;20028;-72
2022/04/02 04:47:06;;;;;;;4.83;2.43;;;;;;;-0.97;100.00;101736.19;10411753;28;20033;-71
2022/04/02 04:52:07;;;;;;;5.67;2.90;;;;;;;-1.01;100.00;101735.69;10411642;28;20037;-71
2022/04/02 04:57:07;;;;;;;6.15;2.42;;;;;;;-1.12;100.00;101728.66;10394016;28;20040;-72
2022/04/02 05:02:08;;;;;;;8.07;2.78;;;;;;;-1.02;100.00;101748.34;10371307;28;20033;-71
2022/04/02 05:07:09;;;;;;;7.23;3.10;;;;;;;-0.86;100.00;101755.72;10384687;28;20044;-71
2022/04/02 05:12:10;;;;;;;5.17;2.70;;;;;;;-0.75;100.00;101743.81;10369002;28;20044;-72
2022/04/02 05:17:11;;;;;;;4.95;2.38;;;;;;;-0.71;100.00;101747.03;10400924;28;20038;-71
2022/04/02 05:22:11;;;;;;;9.15;2.60;;;;;;;-0.73;100.00;101749.91;10409821;28;20049;-71
2022/04/02 05:27:12;;;;;;;9.23;3.00;;;;;;;-0.72;100.00;101769.69;10395399;28;20048;-71
2022/04/02 05:32:12;;;;;;;7.00;2.60;;;;;;;-0.82;100.00;101758.97;10388100;28;20037;-71
2022/04/02 05:37:13;;;;;;;5.15;3.03;;;;;;;-0.95;100.00;101748.56;10387363;28;20030;-72
2022/04/02 05:42:14;;;;;;;6.60;3.78;;;;;;;-0.87;100.00;101772.09;10385404;28;20106;-72
2022/04/02 05:47:15;;;;;;;12.48;3.45;;;;;;;-0.88;100.00;101768.56;10367199;28;20034;-72
2022/04/02 05:52:15;;;;;;;7.50;3.35;;;;;;;-0.70;100.00;101776.63;10384574;28;20029;-72
2022/04/02 05:57:15;;;;;;;9.80;2.75;;;;;;;-0.71;100.00;101764.09;10387988;28;20041;-71
2022/04/02 06:02:16;;;;;;;8.47;4.40;;;;;;;-0.63;100.00;101782.25;10386053;28;20030;-71
2022/04/02 06:07:16;;;;;;;7.13;2.50;;;;;;;-0.52;100.00;101795.50;10385126;28;20030;-71
2022/04/02 06:12:17;;;;;;;6.38;2.67;;;;;;;-0.35;100.00;101795.59;10391122;28;20048;-72
2022/04/02 06:17:17;;;;;;;9.75;2.78;;;;;;;-0.22;100.00;101798.75;10417759;28;20457;-72
2022/04/02 06:22:18;;;;;;;6.22;2.88;;;;;;;0.04;100.00;101801.41;10385787;28;20596;-71
2022/04/02 06:27:18;;;;;;;7.20;2.88;;;;;;;0.33;100.00;101795.63;10368820;28;20034;-72
2022/04/02 06:32:22;;;;;;;7.68;4.30;;;;;;;0.69;100.00;101805.34;10368045;28;20085;-71
2022/04/02 06:37:22;;;;;;;6.20;2.55;;;;;;;1.06;100.00;101806.75;10385093;28;20038;-70
2022/04/02 06:42:23;;;;;;;6.93;2.50;;;;;;;1.54;100.00;101824.88;10382543;28;20041;-72
2022/04/02 06:47:27;;;;;;;10.13;3.95;;;;;;;1.83;100.00;101831.63;10367725;28;20381;-71
2022/04/02 06:52:27;;;;;;;7.22;2.95;;;;;;;2.17;100.00;101816.91;10425054;28;20430;-72
2022/04/02 06:57:28;;;;;;;4.38;2.25;;;;;;;2.46;100.00;101815.41;10429050;28;20029;-71
2022/04/02 07:02:28;;;;;;;8.68;2.25;;;;;;;2.71;100.00;101827.00;10389494;28;20109;-69
2022/04/02 07:07:29;;;;;;;4.18;1.90;;;;;;;3.09;100.00;101840.72;10342153;28;20383;-71
2022/04/02 07:12:29;;;;;;;8.40;2.83;;;;;;;3.36;100.00;101837.41;10416385;28;20056;-69
2022/04/02 07:17:30;;;;;;;7.15;2.40;;;;;;;3.50;100.00;101819.44;10431344;28;20053;-69
2022/04/02 07:22:31;;;;;;;3.97;2.10;;;;;;;4.01;100.00;101826.91;10400560;28;20059;-69
2022/04/02 07:27:31;;;;;;;4.93;1.60;;;;;;;4.34;100.00;101831.97;10434437;28;20028;-71
2022/04/02 07:32:32;;;;;;;3.42;1.58;;;;;;;4.43;100.00;101833.59;10449479;28;20103;-69
2022/04/02 07:37:33;;;;;;;5.22;1.80;;;;;;;4.79;100.00;101851.84;10410463;28;20559;-69
2022/04/02 07:42:59;;;;;;;7.03;2.00;;;;;;;4.98;100.00;101851.25;10450924;28;20043;-68
2022/04/02 07:48:00;;;;;;;5.43;2.00;;;;;;;5.23;100.00;101859.06;10426954;28;20021;-69
2022/04/02 07:53:00;;;;;;;5.38;2.42;;;;;;;5.39;100.00;101853.31;10397167;28;20018;-69
2022/04/02 07:58:04;;;;;;;5.35;2.30;;;;;;;5.35;100.00;101856.63;10432235;28;20385;-70
2022/04/02 08:03:05;;;;;;;8.13;2.55;;;;;;;5.12;100.00;101867.75;10415159;28;20026;-69
2022/04/02 08:08:06;;;;;;;5.38;1.92;;;;;;;4.48;100.00;101866.56;10415006;28;20082;-70
2022/04/02 08:13:07;;;;;;;6.68;2.38;;;;;;;4.38;100.00;101876.91;10428425;28;20029;-69
2022/04/02 08:18:07;;;;;;;3.75;2.42;;;;;;;4.08;100.00;101862.47;10432369;28;20052;-71
2022/04/02 08:23:08;;;;;;;6.55;2.30;;;;;;;4.21;100.00;101888.00;10426437;28;20045;-70
2022/04/02 08:28:13;;;;;;;8.95;1.95;;;;;;;4.12;100.00;101886.41;10470105;28;20442;-69
2022/04/02 08:33:32;;;;;;;3.78;1.85;;;;;;;4.15;100.00;101891.47;10384244;28;20560;-71
2022/04/02 08:38:39;;;;;;;3.35;1.63;;;;;;;4.22;100.00;101894.31;10443251;28;20048;-71
2022/04/02 08:44:07;;;;;;;2.85;1.02;;;;;;;4.11;100.00;101881.97;10445500;28;20029;-71
2022/04/02 08:49:20;;;;;;;7.70;1.63;;;;;;;4.35;100.00;101899.13;10437270;28;20516;-71
2022/04/02 08:54:25;;;;;;;7.60;1.75;;;;;;;4.45;100.00;101889.59;10458089;28;20041;-70
2022/04/02 08:59:37;;;;;;;10.45;1.30;;;;;;;4.41;100.00;101887.47;10386266;28;20041;-72
2022/04/02 09:05:08;;;;;;;3.50;1.30;;;;;;;4.80;100.00;101902.66;10369784;28;20081;-71
2022/04/02 09:10:35;;;;;;;4.63;1.35;;;;;;;4.82;100.00;101906.03;10371999;28;20036;-71
2022/04/02 09:15:49;;;;;;;4.75;1.10;;;;;;;4.74;96.84;101908.88;10402236;28;20075;-72
2022/04/02 09:20:56;;;;;;;3.92;1.30;;;;;;;4.91;97.25;101907.59;10426735;28;20052;-71
2022/04/02 09:26:34;;;;;;;7.47;1.92;;;;;;;4.65;94.59;101922.63;10389083;28;20041;-71
2022/04/02 09:31:37;;;;;;;5.25;1.30;;;;;;;4.72;97.58;101924.59;10386318;28;20046;-70
2022/04/02 09:36:59;;;;;;;2.90;1.00;;;;;;;4.81;98.63;101927.00;10387452;28;20044;-71
2022/04/02 09:42:18;;;;;;;4.50;1.35;;;;;;;5.53;97.56;101919.00;10386815;28;20033;-71
2022/04/02 09:47:21;;;;;;;4.45;1.20;;;;;;;5.68;96.80;101927.94;10400820;28;20034;-72
2022/04/02 09:52:22;;;;;;;2.78;1.13;;;;;;;5.60;95.95;101922.63;10353122;28;20034;-72
2022/04/02 09:57:40;;;;;;;1.70;0.95;;;;;;;5.34;97.57;101909.56;10369121;28;20080;-72
2022/04/02 10:02:57;;;;;;;3.97;1.27;;;;;;;5.40;98.44;101920.56;10338418;28;20030;-73
2022/04/02 10:08:05;;;;;;;2.50;1.40;;;;;;;5.32;98.02;101917.94;10414875;28;20021;-74
2022/04/02 10:13:06;;;;;;;3.20;0.90;;;;;;;5.01;87.21;101880.84;10402160;28;20080;-72
2022/04/02 10:18:06;;;;;;;2.78;0.75;;;;;;;5.09;79.95;101868.97;10378176;28;20054;-72
2022/04/02 10:23:14;;;;;;;1.58;0.70;;;;;;;4.67;76.95;101815.19;10394552;28;20124;-71
2022/04/02 10:28:15;;;;;;;3.40;0.73;;;;;;;4.95;78.40;101876.16;10411278;28;20025;-71
2022/04/02 10:33:27;;;;;;;2.30;0.80;;;;;;;4.87;74.19;101862.63;10403496;28;20037;-72
2022/04/02 10:38:35;;;;;;;1.25;0.80;;;;;;;5.35;74.17;101840.25;10390158;28;20037;-72
2022/04/02 10:43:49;;;;;;;1.02;0.70;;;;;;;6.85;69.89;101841.63;10419517;28;20029;-71
2022/04/02 10:49:05;;;;;;;3.45;1.40;;;;;;;7.40;77.67;101882.59;10418516;28;20059;-71
2022/04/02 10:54:10;;;;;;;3.22;1.00;;;;;;;7.02;77.52;101840.19;10400633;28;20041;-72
2022/04/02 10:59:11;;;;;;;3.30;1.10;;;;;;;6.44;77.45;101894.50;10398769;28;20126;-72
2022/04/02 11:04:31;;;;;;;2.33;0.90;;;;;;;6.14;77.66;101881.06;10399875;28;20041;-73
2022/04/02 11:09:39;;;;;;;2.80;0.90;;;;;;;6.25;78.66;101907.00;10431830;28;20033;-72
2022/04/02 11:14:49;;;;;;;3.50;0.70;;;;;;;6.32;79.06;101890.63;10414624;28;20026;-70
2022/04/02 11:19:58;;;;;;;4.28;1.10;;;;;;;6.71;78.50;101894.63;10409603;28;20046;-70
2022/04/02 11:25:05;;;;;;;4.38;1.10;;;;;;;6.96;78.56;101906.72;10418703;28;20406;-71
2022/04/02 11:30:08;;;;;;;4.82;1.13;;;;;;;6.91;79.59;101901.03;10385488;28;20040;-71
2022/04/02 11:35:16;;;;;;;2.65;0.82;;;;;;;5.86;81.36;101901.00;10419291;28;20040;-72
2022/04/02 11:40:17;;;;;;;4.63;1.27;;;;;;;5.57;83.97;101928.50;10403955;28;20047;-71
2022/04/02 11:45:22;;;;;;;5.10;1.00;;;;;;;5.11;82.55;101932.41;10385195;28;20108;-72
2022/04/02 11:50:27;;;;;;;2.25;1.02;;;;;;;4.72;82.18;101905.50;10368879;28;20060;-72
2022/04/02 11:55:28;;;;;;;2.07;1.03;;;;;;;5.03;82.96;101925.19;10400203;28;20029;-70
2022/04/02 12:00:29;;;;;;;2.38;1.08;;;;;;;5.46;80.93;101918.94;10416805;28;20481;-71
2022/04/02 12:05:42;;;;;;;6.72;1.40;;;;;;;5.58;79.60;101921.97;10401907;28;20029;-71
2022/04/02 12:10:44;;;;;;;4.38;1.10;;;;;;;5.76;79.53;101913.31;10384676;28;20052;-71
2022/04/02 12:16:05;;;;;;;4.85;1.20;;;;;;;6.21;75.01;101912.00;10383489;28;20040;-71
2022/04/02 12:21:09;;;;;;;4.07;1.20;;;;;;;6.46;73.42;101859.56;10399581;28;20041;-72
2022/04/02 12:26:10;;;;;;;3.72;1.02;;;;;;;6.89;71.86;101883.97;10383852;28;20021;-71
2022/04/02 12:31:10;;;;;;;3.90;1.13;;;;;;;6.76;67.14;101860.13;10403649;28;20060;-71
2022/04/02 12:36:12;;;;;;;1.73;0.85;;;;;;;7.76;67.48;101830.13;10419553;28;20063;-72
2022/04/02 12:41:20;;;;;;;1.40;0.77;;;;;;;10.29;58.46;101830.53;10402417;28;20024;-72
2022/04/02 12:46:22;;;;;;;2.95;0.75;;;;;;;9.86;55.77;101832.25;10417789;28;20041;-73
2022/04/02 12:51:25;;;;;;;4.50;1.00;;;;;;;9.45;54.88;101854.81;10386172;28;20017;-72
2022/04/02 12:56:30;;;;;;;2.58;1.10;;;;;;;8.87;52.16;101840.16;10404242;28;20098;-72
2022/04/02 13:01:33;;;;;;;2.88;0.82;;;;;;;8.21;53.29;101859.59;10387943;28;20056;-71
2022/04/02 13:06:35;;;;;;;1.40;0.60;;;;;;;8.20;56.95;101869.72;10402966;28;20025;-72
2022/04/02 13:12:00;;;;;;;3.85;1.00;;;;;;;8.24;51.87;101857.25;10383574;28;20044;-71
2022/04/02 13:17:20;;;;;;;1.83;0.90;;;;;;;9.84;51.87;101850.06;10400847;28;20034;-72
2022/04/02 13:22:20;;;;;;;3.63;0.75;;;;;;;10.74;51.66;101845.91;10433129;28;20045;-72
2022/04/02 13:27:42;;;;;;;2.42;1.10;;;;;;;11.97;50.02;101844.47;10384417;28;20084;-71
2022/04/02 13:33:11;;;;;;;1.98;1.23;;;;;;;11.39;48.17;101829.50;10416073;28;20033;-70
2022/04/02 13:38:39;;;;;;;1.67;0.70;;;;;;;9.82;49.92;101853.03;10399351;28;20048;-72
2022/04/02 13:43:45;;;;;;;10.55;2.17;;;;;;;8.24;52.00;101846.28;10415960;28;20486;-71
2022/04/02 13:49:00;;;;;;;3.58;0.90;;;;;;;8.16;51.49;101853.91;10427878;28;20056;-69
2022/04/02 13:54:24;;;;;;;1.52;0.70;;;;;;;9.43;48.49;101855.03;10426620;28;20041;-70
2022/04/02 13:59:33;;;;;;;2.00;0.80;;;;;;;10.07;47.02;101832.91;10381460;28;20056;-71
2022/04/02 14:04:37;;;;;;;3.88;0.82;;;;;;;11.64;48.81;101829.31;10442417;28;20033;-72
2022/04/02 14:09:37;;;;;;;2.65;1.00;;;;;;;12.21;48.59;101853.56;10417782;28;20422;-70
2022/04/02 14:14:55;;;;;;;2.88;1.17;;;;;;;10.50;49.98;101870.59;10435633;28;20022;-70
2022/04/02 14:20:07;;;;;;;4.78;1.10;;;;;;;8.92;47.75;101857.91;10389261;28;20050;-71
2022/04/02 14:25:28;;;;;;;2.55;0.80;;;;;;;7.83;51.39;101874.84;10360907;28;20038;-71
2022/04/02 14:31:01;;;;;;;3.53;0.85;;;;;;;7.38;53.80;101888.31;10434755;28;20045;-71
2022/04/02 14:36:30;;;;;;;1.60;0.70;;;;;;;9.56;49.35;101878.00;10430594;28;20046;-68
2022/04/02 14:41:57;;;;;;;3.22;0.77;;;;;;;9.30;47.04;101868.84;10444980;28;20029;-71
2022/04/02 14:47:13;;;;;;;3.15;0.70;;;;;;;8.48;49.17;101879.63;10451548;28;20040;-71
2022/04/02 14:52:32;;;;;;;2.22;0.98;;;;;;;8.58;52.25;101896.47;10450545;28;20060;-71
2022/04/02 14:57:54;;;;;;;2.42;0.90;;;;;;;9.14;49.56;101872.16;10448107;28;20041;-72
2022/04/02 15:03:19;;;;;;;2.38;0.85;;;;;;;9.29;47.79;101875.41;10448645;28;20048;-74
2022/04/02 15:08:31;;;;;;;2.97;1.52;;;;;;;8.71;45.84;101857.16;10422200;28;20037;-70
2022/04/02 15:13:32;;;;;;;2.08;0.90;;;;;;;9.65;46.85;101862.88;10414325;28;20021;-69
2022/04/02 15:18:32;;;;;;;3.67;1.17;;;;;;;9.06;47.78;101874.06;10433583;28;20509;-70
2022/04/02 15:23:56;;;;;;;4.13;0.80;;;;;;;10.11;44.07;101858.91;10432097;28;20038;-72
2022/04/02 15:29:07;;;;;;;2.17;1.02;;;;;;;10.66;41.52;101845.16;10428782;28;20041;-71
2022/04/02 15:34:08;;;;;;;1.70;0.88;;;;;;;9.95;44.60;101845.72;10431089;28;20055;-72
2022/04/02 15:39:09;;;;;;;2.13;0.80;;;;;;;10.25;47.53;101873.34;10431315;28;20558;-72
2022/04/02 15:44:10;;;;;;;2.58;1.00;;;;;;;11.53;45.63;101852.19;10413369;28;20056;-72
2022/04/02 15:49:16;;;;;;;2.30;1.13;;;;;;;11.65;44.57;101863.25;10395215;28;20064;-72
2022/04/02 15:54:22;;;;;;;1.25;0.60;;;;;;;12.09;41.11;101844.44;10430368;28;20037;-73
2022/04/02 15:59:23;;;;;;;;;;;;;;;12.23;41.51;101831.25;10430777;28;20038;-73
2022/04/02 16:04:23;;;;;;;3.97;1.27;;;;;;;11.98;40.99;101856.34;10428887;28;19916;-73
2022/04/02 16:09:59;;;;;;;3.95;0.80;;;;;;;11.55;40.83;101855.53;10412114;28;20284;-72
2022/04/02 16:15:32;;;;;;;1.92;0.55;;;;;;;11.00;40.12;101859.34;10429399;28;20040;-72
2022/04/02 16:20:33;;;;;;;6.43;1.13;;;;;;;10.09;39.44;101841.78;10414044;28;20037;-72
2022/04/02 16:25:33;;;;;;;3.42;0.80;;;;;;;9.84;40.75;101856.41;10409201;28;20076;-73
2022/04/02 16:30:33;;;;;;;3.13;0.80;;;;;;;9.36;42.74;101878.97;10410732;28;20021;-71
2022/04/02 16:35:35;;;;;;;4.97;0.63;;;;;;;8.36;44.68;101898.59;10411831;28;20030;-72
2022/04/02 16:40:35;;;;;;;4.57;1.20;;;;;;;7.78;46.61;101918.50;10395881;28;20025;-73
2022/04/02 16:45:36;;;;;;;5.15;1.30;;;;;;;6.84;47.25;101933.00;10410109;28;20040;-72
2022/04/02 16:50:36;;;;;;;5.15;0.90;;;;;;;6.39;48.26;101951.69;10410150;28;20033;-72
2022/04/02 16:55:37;;;;;;;2.17;0.80;;;;;;;5.87;48.84;101956.53;10392862;28;20026;-72
2022/04/02 17:00:37;;;;;;;2.50;0.50;;;;;;;5.48;48.84;101941.44;10387121;28;20018;-72
2022/04/02 17:05:38;;;;;;;1.30;0.40;;;;;;;4.98;49.63;101930.38;10336821;28;20029;-71
2022/04/02 17:10:38;;;;;;;1.23;0.63;;;;;;;4.74;51.46;101979.81;10398656;28;20026;-71
2022/04/02 17:15:40;;;;;;;1.13;0.63;;;;;;;4.43;52.82;101983.56;10408028;28;20036;-71
2022/04/02 17:20:45;;;;;;;4.15;0.73;;;;;;;4.23;52.65;101984.06;10395224;28;20054;-72
2022/04/02 17:25:45;;;;;;;4.22;1.42;;;;;;;4.10;54.59;101996.66;10407929;28;20494;-70
2022/04/02 17:30:47;;;;;;;1.55;0.60;;;;;;;3.94;54.08;101989.47;10402951;28;20037;-71
2022/04/02 17:35:51;;;;;;;4.85;0.70;;;;;;;3.71;56.15;102001.22;10407379;28;20097;-71
2022/04/02 17:40:53;;;;;;;4.07;1.65;;;;;;;3.63;56.62;102010.28;10368022;28;20101;-71
2022/04/02 17:45:53;;;;;;;3.03;1.02;;;;;;;2.88;58.60;101940.13;10370686;28;20034;-70
2022/04/02 17:50:59;;;;;;;3.42;0.93;;;;;;;3.32;58.70;102032.06;10392191;28;20054;-71
2022/04/02 17:56:11;;;;;;;3.83;1.20;;;;;;;3.21;59.38;102048.81;10422907;28;20033;-71
2022/04/02 18:01:27;;;;;;;4.50;0.95;;;;;;;2.96;61.21;102059.78;10414790;28;20034;-70
2022/04/02 18:06:29;;;;;;;2.40;0.57;;;;;;;2.86;61.39;102056.41;10408936;28;20029;-70
2022/04/02 18:11:30;;;;;;;2.15;0.85;;;;;;;2.60;62.63;102056.63;10424196;28;20033;-71
2022/04/02 18:16:32;;;;;;;4.18;1.17;;;;;;;2.59;66.56;102090.28;10407518;28;20033;-70
2022/04/02 18:21:33;;;;;;;4.95;0.93;;;;;;;2.37;66.63;102094.53;10395964;28;20046;-71
2022/04/02 18:26:34;;;;;;;2.67;0.80;;;;;;;2.22;69.04;102099.81;10387115;28;20038;-71
2022/04/02 18:31:34;;;;;;;3.05;1.23;;;;;;;1.76;70.68;102054.09;10386932;28;20038;-71
2022/04/02 18:36:36;;;;;;;2.35;1.27;;;;;;;2.00;70.72;102106.75;10368155;28;20045;-73
2022/04/02 18:41:36;;;;;;;3.13;0.90;;;;;;;1.93;73.36;102127.44;10368187;28;20033;-71
2022/04/02 18:46:37;;;;;;;4.22;1.25;;;;;;;1.69;77.76;102133.66;10384696;28;20389;-72
2022/04/02 18:51:37;;;;;;;3.38;1.40;;;;;;;1.47;81.88;102137.81;10356074;28;20379;-72
2022/04/02 18:56:37;;;;;;;5.35;1.98;;;;;;;1.39;83.31;102150.34;10360149;28;20394;-71
2022/04/02 19:01:39;;;;;;;1.98;1.15;;;;;;;1.09;86.57;102126.44;10360364;28;20037;-72
2022/04/02 19:06:39;;;;;;;3.38;0.70;;;;;;;1.07;86.43;102145.56;10375124;28;20064;-72
2022/04/02 19:11:40;;;;;;;3.60;1.75;;;;;;;1.04;87.16;102145.06;10357980;28;20045;-72
2022/04/02 19:16:40;;;;;;;1.70;1.17;;;;;;;0.91;88.95;102153.59;10390695;28;20386;-72
2022/04/02 19:21:41;;;;;;;2.65;0.73;;;;;;;0.78;88.90;102146.75;10429041;28;20041;-72
2022/04/02 19:26:41;;;;;;;2.22;0.98;;;;;;;0.76;89.08;102154.19;10414518;28;20029;-71
2022/04/02 19:31:42;;;;;;;3.65;0.77;;;;;;;0.63;90.96;102147.50;10416141;28;20045;-72
2022/04/02 19:36:42;;;;;;;3.33;1.48;;;;;;;0.62;91.00;102152.06;10398596;28;20022;-71
2022/04/02 19:41:43;;;;;;;2.47;0.85;;;;;;;0.51;93.24;102152.31;10430914;28;20021;-71
2022/04/02 19:46:43;;;;;;;5.40;1.45;;;;;;;0.40;93.11;102164.25;10431214;28;20389;-72
2022/04/02 19:51:44;;;;;;;1.83;1.10;;;;;;;0.22;94.82;102174.22;10430613;28;20052;-74
2022/04/02 19:56:44;;;;;;;4.32;1.48;;;;;;;0.12;97.81;102179.69;10398558;28;20401;-70
2022/04/02 20:01:46;;;;;;;5.07;2.10;;;;;;;-0.04;99.92;102183.09;10414815;28;20018;-71
2022/04/02 20:06:47;;;;;;;5.32;2.42;;;;;;;-0.19;100.00;102187.31;10431098;28;20044;-71
2022/04/02 20:11:47;;;;;;;4.97;1.80;;;;;;;-0.34;100.00;102189.69;10429282;28;20041;-71
2022/04/02 20:16:48;;;;;;;4.70;2.30;;;;;;;-0.51;100.00;102178.66;10397141;28;20517;-71
2022/04/02 20:21:48;;;;;;;3.85;1.98;;;;;;;-0.51;100.00;102191.31;10428799;28;20712;-70
2022/04/02 20:26:49;;;;;;;4.43;1.35;;;;;;;-0.58;100.00;102195.63;10413041;28;20076;-73
2022/04/02 20:31:49;;;;;;;5.57;1.60;;;;;;;-0.65;100.00;102196.22;10396211;28;20394;-72
2022/04/02 20:36:50;;;;;;;3.17;1.77;;;;;;;-0.87;100.00;102180.34;10428636;28;20040;-73
2022/04/02 20:41:50;;;;;;;4.32;1.95;;;;;;;-0.87;100.00;102207.38;10395215;28;20036;-72
2022/04/02 20:46:51;;;;;;;3.17;1.98;;;;;;;-1.01;100.00;102200.59;10429956;28;20032;-73
2022/04/02 20:51:51;;;;;;;4.93;1.67;;;;;;;-1.04;100.00;102207.13;10410295;28;20044;-72
2022/04/02 20:56:52;;;;;;;2.88;1.90;;;;;;;-1.12;100.00;102212.41;10398741;28;20033;-72
2022/04/02 21:01:52;;;;;;;6.53;2.30;;;;;;;-1.21;100.00;102218.69;10387627;28;20076;-72
2022/04/02 21:06:53;;;;;;;5.37;2.17;;;;;;;-1.33;100.00;102212.56;10386904;28;20048;-73
2022/04/02 21:11:57;;;;;;;3.15;1.48;;;;;;;-1.42;100.00;102208.88;10369094;28;20037;-73
2022/04/02 21:16:58;;;;;;;4.78;1.52;;;;;;;-1.50;100.00;102211.44;10385387;28;20106;-73
2022/04/02 21:21:58;;;;;;;6.70;1.77;;;;;;;-1.58;100.00;102211.31;10387753;28;20045;-72
2022/04/02 21:26:59;;;;;;;5.50;1.77;;;;;;;-1.59;100.00;102206.03;10370501;28;20113;-73
2022/04/02 21:31:59;;;;;;;3.03;1.95;;;;;;;-1.65;100.00;102215.56;10388032;28;20237;-73
2022/04/02 21:37:00;;;;;;;4.03;2.13;;;;;;;-1.86;100.00;102199.47;10385436;28;20312;-72
2022/04/02 21:42:00;;;;;;;7.72;2.47;;;;;;;-1.87;100.00;102212.13;10369223;28;20536;-73
2022/04/02 21:47:02;;;;;;;3.83;1.95;;;;;;;-1.94;100.00;102213.69;10385563;28;20037;-73
2022/04/02 21:52:04;;;;;;;3.63;1.85;;;;;;;-1.96;100.00;102221.06;10385640;28;20030;-73
2022/04/02 21:57:04;;;;;;;7.83;2.70;;;;;;;-2.01;100.00;102223.31;10387016;28;20116;-72
2022/04/02 22:02:10;;;;;;;6.40;2.28;;;;;;;-2.06;100.00;102220.19;10356745;28;20030;-74
2022/04/02 22:07:12;;;;;;;3.92;2.05;;;;;;;-2.13;100.00;102227.13;10385491;28;20022;-73
2022/04/02 22:12:13;;;;;;;5.17;2.43;;;;;;;-2.22;100.00;102231.50;10384568;28;20045;-73
2022/04/02 22:17:13;;;;;;;3.55;2.00;;;;;;;-2.28;100.00;102227.50;10384648;28;20085;-73
2022/04/02 22:22:14;;;;;;;3.47;1.88;;;;;;;-2.27;100.00;102226.53;10369035;28;20057;-73
2022/04/02 22:27:14;;;;;;;8.80;2.40;;;;;;;-2.29;100.00;102230.34;10374435;28;20038;-74
2022/04/02 22:32:15;;;;;;;6.28;2.58;;;;;;;-2.25;100.00;102231.78;10396708;28;20033;-74
2022/04/02 22:37:15;;;;;;;7.57;2.63;;;;;;;-2.35;100.00;102226.34;10433896;28;20497;-74
2022/04/02 22:42:16;;;;;;;6.17;2.30;;;;;;;-2.66;100.00;102169.75;10423314;28;20125;-74
2022/04/02 22:47:17;;;;;;;5.65;2.55;;;;;;;-2.41;100.00;102231.44;10431638;28;20030;-74
2022/04/02 22:52:17;;;;;;;4.63;2.23;;;;;;;-2.39;100.00;102230.31;10434212;28;20048;-73
2022/04/02 22:57:18;;;;;;;6.03;1.80;;;;;;;-2.37;100.00;102233.72;10435480;28;20124;-73
2022/04/02 23:02:18;;;;;;;5.13;2.03;;;;;;;-2.42;100.00;102235.97;10431956;28;20334;-74
2022/04/02 23:07:19;;;;;;;4.13;2.57;;;;;;;-2.44;100.00;102237.94;10386764;28;20505;-74
2022/04/02 23:12:19;;;;;;;4.90;2.97;;;;;;;-2.49;100.00;102235.66;10391239;28;20034;-74
2022/04/02 23:17:20;;;;;;;3.47;1.92;;;;;;;-2.52;100.00;102225.16;10398066;28;20371;-73
2022/04/02 23:22:20;;;;;;;5.90;2.83;;;;;;;-2.47;100.00;102235.53;10396687;28;20092;-73